Time;durP1;ratioP1;P1;durP2;ratioP2;P2;SDS_P1;SDS_P2;PMS_P1;PMS_P2;Temp;Humidity;BMP_temperature;BMP_pressure;BME280_temperature;BME280_humidity;BME280_pressure;Samples;Min_cycle;Max_cycle;Signal;HPM_P1;HPM_P2
2023/03/21 00:07:23;;;;;;;6.80;3.47;;;9.60;99.90;;;;;;25914344;22;20012;-41
2023/03/21 00:17:29;;;;;;;9.70;4.30;;;9.50;99.90;;;;;;25920430;22;20023;-41
2023/03/21 00:27:32;;;;;;;9.38;6.05;;;9.60;99.90;;;;;;25904993;22;20441;-41
2023/03/21 00:37:33;;;;;;;8.60;4.97;;;9.50;99.90;;;;;;25916071;22;20008;-41
2023/03/21 00:47:34;;;;;;;10.70;4.95;;;9.50;99.90;;;;;;25917746;22;20016;-41
2023/03/21 00:57:35;;;;;;;10.98;6.25;;;9.50;99.90;;;;;;25910816;22;20014;-41
2023/03/21 01:07:36;;;;;;;11.85;5.78;;;9.50;99.90;;;;;;25899481;22;20193;-41
2023/03/21 01:17:37;;;;;;;7.60;5.40;;;9.50;99.90;;;;;;25908584;22;20094;-41
2023/03/21 01:27:38;;;;;;;9.82;5.53;;;9.50;99.90;;;;;;25906388;22;20015;-41
2023/03/21 01:37:40;;;;;;;16.95;9.23;;;9.50;99.90;;;;;;25912490;22;20341;-41
2023/03/21 01:47:41;;;;;;;13.15;5.13;;;9.40;99.90;;;;;;25916322;22;20014;-41
2023/03/21 01:57:56;;;;;;;11.68;6.18;;;9.50;99.90;;;;;;25908712;22;20030;-41
2023/03/21 02:07:58;;;;;;;14.00;8.52;;;9.50;99.90;;;;;;25906810;22;20011;-41
2023/03/21 02:18:05;;;;;;;13.25;7.03;;;9.40;99.90;;;;;;25911193;22;20023;-41
2023/03/21 02:28:40;;;;;;;17.00;10.63;;;9.50;99.90;;;;;;25908896;22;20026;-41
2023/03/21 02:38:46;;;;;;;14.88;6.35;;;9.40;99.90;;;;;;25907897;22;20034;-41
2023/03/21 02:48:55;;;;;;;10.00;5.60;;;9.40;99.90;;;;;;25913511;22;20261;-41
2023/03/21 02:58:58;;;;;;;7.00;4.35;;;9.40;99.90;;;;;;25913973;22;20061;-41
2023/03/21 03:09:21;;;;;;;10.43;4.70;;;9.30;99.90;;;;;;25914430;22;20412;-41
2023/03/21 03:19:28;;;;;;;6.82;3.78;;;9.30;99.90;;;;;;25910737;22;21507;-41
2023/03/21 03:29:33;;;;;;;8.27;4.57;;;9.30;99.90;;;;;;25909210;22;20016;-41
2023/03/21 03:39:59;;;;;;;9.63;4.35;;;9.30;99.90;;;;;;25908016;22;20014;-41
2023/03/21 03:50:26;;;;;;;8.45;5.20;;;9.20;99.90;;;;;;25904762;22;20031;-41
2023/03/21 04:00:31;;;;;;;7.53;4.22;;;9.20;99.90;;;;;;25900902;22;20034;-41
2023/03/21 04:10:33;;;;;;;15.10;4.80;;;9.20;99.90;;;;;;25916413;22;20412;-41
2023/03/21 04:20:34;;;;;;;7.80;4.15;;;9.20;99.90;;;;;;25905891;22;20028;-41
2023/03/21 04:30:35;;;;;;;8.80;4.43;;;9.30;99.90;;;;;;25915748;22;20019;-41
2023/03/21 04:40:36;;;;;;;12.45;5.22;;;9.20;99.90;;;;;;25908390;22;20012;-41
2023/03/21 04:50:37;;;;;;;10.88;6.30;;;9.20;99.90;;;;;;25904113;22;20008;-41
2023/03/21 05:00:39;;;;;;;12.65;5.22;;;9.20;99.90;;;;;;25908577;22;20087;-41
2023/03/21 05:10:40;;;;;;;11.55;4.90;;;9.30;99.90;;;;;;25917949;22;20008;-41
2023/03/21 05:20:44;;;;;;;11.48;5.45;;;9.20;99.90;;;;;;25910200;22;20094;-41
2023/03/21 05:30:46;;;;;;;14.77;5.93;;;9.10;99.90;;;;;;25913790;22;20007;-41
2023/03/21 05:40:48;;;;;;;13.00;6.30;;;9.10;99.90;;;;;;25903942;22;20464;-41
2023/03/21 05:50:49;;;;;;;11.57;6.10;;;9.00;99.90;;;;;;25907390;22;20018;-41
2023/03/21 06:00:50;;;;;;;17.83;7.93;;;9.00;99.90;;;;;;25894409;22;20042;-42
2023/03/21 06:10:51;;;;;;;14.95;7.10;;;9.00;99.90;;;;;;25906973;22;20574;-41
2023/03/21 06:20:53;;;;;;;10.52;5.03;;;9.00;99.90;;;;;;25912923;22;20028;-41
2023/03/21 06:30:54;;;;;;;11.23;6.00;;;9.00;99.90;;;;;;25914671;22;20319;-41
2023/03/21 06:40:56;;;;;;;10.10;5.57;;;9.10;99.90;;;;;;25924892;22;20354;-41
2023/03/21 06:50:57;;;;;;;11.75;6.03;;;9.10;99.90;;;;;;25915298;22;20120;-41
2023/03/21 07:01:00;;;;;;;7.80;4.72;;;9.10;99.90;;;;;;25913403;22;20015;-41
2023/03/21 07:11:01;;;;;;;11.50;5.05;;;9.10;99.90;;;;;;25909275;22;20433;-41
2023/03/21 07:21:02;;;;;;;8.48;4.55;;;9.20;99.90;;;;;;25913548;22;20428;-41
2023/03/21 07:31:05;;;;;;;9.20;4.50;;;9.20;99.90;;;;;;25913592;22;20337;-41
2023/03/21 07:41:06;;;;;;;10.05;4.45;;;9.20;99.90;;;;;;25916400;22;20010;-41
2023/03/21 07:51:08;;;;;;;7.72;3.67;;;9.30;99.90;;;;;;25900152;22;20467;-41
2023/03/21 08:01:09;;;;;;;7.60;3.60;;;9.20;99.90;;;;;;25913037;22;20449;-41
2023/03/21 08:11:11;;;;;;;6.03;2.85;;;9.30;99.90;;;;;;25902296;22;20019;-41
2023/03/21 08:21:12;;;;;;;11.65;4.75;;;9.40;99.90;;;;;;25906562;22;20020;-41
2023/03/21 08:31:13;;;;;;;10.90;4.53;;;9.40;99.90;;;;;;25909218;22;20333;-41
2023/03/21 08:41:15;;;;;;;9.30;4.30;;;9.50;99.90;;;;;;25901150;22;20014;-41
2023/03/21 08:51:16;;;;;;;10.52;3.95;;;9.60;99.90;;;;;;25906869;22;20046;-41
2023/03/21 09:01:17;;;;;;;6.35;3.38;;;9.60;99.90;;;;;;25911918;22;20018;-41
2023/03/21 09:11:18;;;;;;;11.57;5.10;;;9.70;99.90;;;;;;25912238;22;20011;-41
2023/03/21 09:21:19;;;;;;;9.80;4.07;;;9.90;99.90;;;;;;25902128;22;20023;-41
2023/03/21 09:31:24;;;;;;;7.35;2.95;;;10.00;99.90;;;;;;25914918;22;20012;-41
2023/03/21 09:41:48;;;;;;;6.60;2.97;;;10.20;99.90;;;;;;25910532;22;20533;-41
2023/03/21 09:51:51;;;;;;;7.43;3.33;;;10.30;99.90;;;;;;25907317;22;20011;-41
2023/03/21 10:01:54;;;;;;;9.20;2.92;;;10.50;96.70;;;;;;25909363;22;20015;-39
2023/03/21 10:12:05;;;;;;;14.02;4.38;;;10.80;86.10;;;;;;25887339;22;20355;-39
2023/03/21 10:22:08;;;;;;;6.43;3.45;;;10.90;66.80;;;;;;25913325;22;20102;-39
2023/03/21 10:32:12;;;;;;;4.53;2.40;;;11.10;54.20;;;;;;25904675;22;20154;-40
2023/03/21 10:42:22;;;;;;;5.10;2.13;;;11.20;43.60;;;;;;25918360;22;20026;-40
2023/03/21 10:52:27;;;;;;;7.20;2.15;;;11.40;35.60;;;;;;25915469;22;20120;-41
2023/03/21 11:02:36;;;;;;;7.47;3.40;;;11.60;37.40;;;;;;25918923;22;20030;-41
2023/03/21 11:12:39;;;;;;;4.65;2.28;;;11.70;32.30;;;;;;25925894;22;20091;-41
2023/03/21 11:22:42;;;;;;;6.30;3.33;;;11.80;28.80;;;;;;25917521;22;20012;-41
2023/03/21 11:32:44;;;;;;;4.45;2.63;;;11.80;25.40;;;;;;25925528;22;20015;-41
2023/03/21 11:42:48;;;;;;;5.43;2.38;;;12.00;24.20;;;;;;25927594;22;20094;-41
2023/03/21 11:53:02;;;;;;;3.90;2.28;;;12.30;19.10;;;;;;25930882;22;20095;-41
2023/03/21 12:03:24;;;;;;;4.68;2.67;;;12.40;14.30;;;;;;25924048;22;20103;-41
2023/03/21 12:13:40;;;;;;;5.90;3.35;;;12.30;14.00;;;;;;25919567;22;20577;-41
2023/03/21 12:24:04;;;;;;;6.45;2.47;;;12.50;8.30;;;;;;25925900;22;20020;-42
2023/03/21 12:34:19;;;;;;;4.63;2.25;;;12.80;1.00;;;;;;25896423;22;20514;-42
2023/03/21 12:44:22;;;;;;;6.30;2.20;;;13.00;1.00;;;;;;25910967;22;20358;-42
2023/03/21 12:54:39;;;;;;;3.25;1.35;;;13.20;1.00;;;;;;25916033;22;20023;-42
2023/03/21 13:05:07;;;;;;;4.63;2.22;;;14.40;1.00;;;;;;25912559;22;20089;-42
2023/03/21 13:15:31;;;;;;;14.20;4.10;;;13.90;1.00;;;;;;25901629;22;20015;-41
2023/03/21 13:25:37;;;;;;;3.03;1.60;;;13.30;1.00;;;;;;25910004;22;20024;-41
2023/03/21 13:35:41;;;;;;;9.65;3.88;;;12.90;1.00;;;;;;25913153;22;20061;-40
2023/03/21 13:45:51;;;;;;;7.45;3.83;;;12.80;1.00;;;;;;25911857;22;20090;-41
2023/03/21 13:56:20;;;;;;;5.47;2.53;;;13.00;1.00;;;;;;25889788;22;20010;-42
2023/03/21 14:06:24;;;;;;;4.30;2.17;;;13.00;1.00;;;;;;25902108;22;21563;-42
2023/03/21 14:16:27;;;;;;;8.52;3.25;;;12.90;1.00;;;;;;25910125;22;20030;-42
2023/03/21 14:26:32;;;;;;;4.60;2.33;;;12.90;1.00;;;;;;25915199;22;20446;-42
2023/03/21 14:36:38;;;;;;;7.20;2.95;;;12.90;1.00;;;;;;25911420;22;20011;-42
2023/03/21 14:46:40;;;;;;;4.90;2.00;;;12.80;1.00;;;;;;25921757;22;20154;-41
2023/03/21 14:56:46;;;;;;;3.92;1.92;;;12.80;1.00;;;;;;25920340;22;20087;-43
2023/03/21 15:06:57;;;;;;;4.27;2.20;;;12.80;1.00;;;;;;25899886;22;20019;-43
2023/03/21 15:17:02;;;;;;;3.88;1.60;;;12.70;1.00;;;;;;25912936;22;20012;-43
2023/03/21 15:27:16;;;;;;;3.47;1.35;;;12.50;1.00;;;;;;25912853;22;20023;-43
2023/03/21 15:37:27;;;;;;;9.20;2.92;;;12.50;1.00;;;;;;25912046;22;20032;-43
2023/03/21 15:47:49;;;;;;;5.25;2.40;;;12.50;1.00;;;;;;25917176;22;20020;-43
2023/03/21 15:57:53;;;;;;;4.28;1.77;;;12.40;1.90;;;;;;25914971;22;20035;-43
2023/03/21 16:08:01;;;;;;;4.72;1.73;;;12.30;6.30;;;;;;25885337;22;20011;-43
2023/03/21 16:18:05;;;;;;;4.28;2.33;;;12.20;15.00;;;;;;25906395;22;20480;-42
2023/03/21 16:28:14;;;;;;;3.30;1.48;;;12.00;22.00;;;;;;25911958;22;20016;-43
2023/03/21 16:38:15;;;;;;;3.30;1.58;;;12.10;22.50;;;;;;25906342;22;20473;-43
2023/03/21 16:48:17;;;;;;;2.30;1.13;;;12.10;21.70;;;;;;25903531;22;20019;-43
2023/03/21 16:58:18;;;;;;;2.90;1.40;;;12.30;16.50;;;;;;25915539;22;20016;-42
2023/03/21 17:08:20;;;;;;;3.10;1.25;;;12.40;13.70;;;;;;25919504;22;20102;-43
2023/03/21 17:18:21;;;;;;;5.50;2.15;;;12.10;17.60;;;;;;25919216;22;20623;-43
2023/03/21 17:28:23;;;;;;;4.18;1.50;;;12.00;20.10;;;;;;25915626;22;20019;-43
2023/03/21 17:38:24;;;;;;;6.35;1.30;;;11.90;20.50;;;;;;25908548;22;20349;-43
2023/03/21 17:48:25;;;;;;;4.20;2.35;;;12.00;22.00;;;;;;25899143;22;20024;-43
2023/03/21 17:58:27;;;;;;;3.67;1.73;;;11.90;20.40;;;;;;25895255;22;20508;-42
2023/03/21 18:08:28;;;;;;;10.68;3.45;;;11.90;20.60;;;;;;25900779;22;20011;-42
2023/03/21 18:18:29;;;;;;;3.05;1.65;;;11.80;24.60;;;;;;25905996;22;20030;-42
2023/03/21 18:28:30;;;;;;;4.78;2.40;;;11.80;27.30;;;;;;25915364;22;20019;-42
2023/03/21 18:38:31;;;;;;;6.20;1.60;;;11.80;29.30;;;;;;25912902;22;20008;-42
2023/03/21 18:48:33;;;;;;;2.60;0.93;;;11.70;28.40;;;;;;25915059;22;20011;-41
2023/03/21 18:58:35;;;;;;;2.10;0.70;;;11.60;19.80;;;;;;25887331;22;20079;-41
2023/03/21 19:08:38;;;;;;;3.47;1.17;;;11.50;9.40;;;;;;25928613;22;20019;-42
2023/03/21 19:18:40;;;;;;;3.03;1.15;;;11.30;10.80;;;;;;25928454;22;20455;-42
2023/03/21 19:28:41;;;;;;;2.47;0.90;;;11.20;13.60;;;;;;25921502;22;20020;-42
2023/03/21 19:38:42;;;;;;;2.20;0.90;;;11.00;19.40;;;;;;25917096;22;20344;-42
2023/03/21 19:48:43;;;;;;;3.90;1.08;;;10.90;28.20;;;;;;25896003;22;22085;-42
2023/03/21 19:58:46;;;;;;;4.95;2.67;;;10.90;41.40;;;;;;25885848;22;20138;-42
2023/03/21 20:08:47;;;;;;;6.05;2.78;;;10.80;56.10;;;;;;25901553;22;20021;-44
2023/03/21 20:18:48;;;;;;;4.63;1.67;;;10.80;72.90;;;;;;25871774;22;20043;-41
2023/03/21 20:28:55;;;;;;;4.50;1.98;;;10.70;77.60;;;;;;25893101;22;20094;-41
2023/03/21 20:38:57;;;;;;;3.03;1.83;;;10.70;79.40;;;;;;25894208;22;20440;-41
2023/03/21 20:48:58;;;;;;;3.50;2.35;;;10.70;67.60;;;;;;25896689;22;20012;-42
2023/03/21 20:58:59;;;;;;;2.35;1.33;;;10.60;68.50;;;;;;25894163;22;20326;-42
2023/03/21 21:09:00;;;;;;;4.43;1.73;;;10.50;63.80;;;;;;25893278;22;20022;-42
2023/03/21 21:19:01;;;;;;;2.80;1.60;;;10.40;58.90;;;;;;25896287;22;20019;-42
2023/03/21 21:29:03;;;;;;;6.50;2.30;;;10.40;47.30;;;;;;25896685;22;20364;-42
2023/03/21 21:39:06;;;;;;;3.40;2.03;;;10.30;45.30;;;;;;25896142;22;20425;-41
2023/03/21 21:49:07;;;;;;;5.30;1.20;;;10.30;39.50;;;;;;25896201;22;20445;-41
2023/03/21 21:59:08;;;;;;;3.35;1.67;;;10.40;35.90;;;;;;25901280;22;20523;-41
2023/03/21 22:09:09;;;;;;;4.22;1.25;;;10.40;30.00;;;;;;25890234;22;20376;-41
2023/03/21 22:19:10;;;;;;;5.25;1.27;;;10.30;28.80;;;;;;25912471;22;20111;-42
2023/03/21 22:29:12;;;;;;;4.32;1.02;;;10.30;26.00;;;;;;25913574;22;20030;-41
2023/03/21 22:39:13;;;;;;;5.65;2.05;;;10.30;21.30;;;;;;25914731;22;20011;-41
2023/03/21 22:49:14;;;;;;;2.28;0.90;;;10.20;21.00;;;;;;25908579;22;20023;-42
2023/03/21 22:59:15;;;;;;;3.30;0.93;;;10.00;21.60;;;;;;25913332;22;20433;-42
2023/03/21 23:09:16;;;;;;;1.83;0.50;;;10.00;20.00;;;;;;25877818;22;20021;-42
2023/03/21 23:19:19;;;;;;;7.03;1.60;;;10.00;18.20;;;;;;25891652;22;20420;-42
2023/03/21 23:29:20;;;;;;;3.42;1.13;;;9.90;18.50;;;;;;25903674;22;20062;-41
2023/03/21 23:39:21;;;;;;;3.15;1.00;;;9.90;18.10;;;;;;25908198;22;20020;-41
2023/03/21 23:49:23;;;;;;;11.30;0.60;;;9.80;20.00;;;;;;25894809;22;20034;-42
2023/03/21 23:59:24;;;;;;;11.80;1.50;;;9.80;18.10;;;;;;25901632;22;20358;-43
